sensor_id;sensor_type;location;lat;lon;timestamp;P1;durP1;ratioP1;P2;durP2;ratioP2
19038;SDS011;9652;49.014;12.052;2023-12-20T00:02:16;5.60;;;4.40;;
19038;SDS011;9652;49.014;12.052;2023-12-20T00:04:43;5.20;;;4.57;;
19038;SDS011;9652;49.014;12.052;2023-12-20T00:07:11;5.33;;;4.83;;
19038;SDS011;9652;49.014;12.052;2023-12-20T00:09:38;7.20;;;5.93;;
19038;SDS011;9652;49.014;12.052;2023-12-20T00:12:05;6.40;;;4.87;;
19038;SDS011;9652;49.014;12.052;2023-12-20T00:14:33;5.80;;;5.20;;
19038;SDS011;9652;49.014;12.052;2023-12-20T00:17:00;5.07;;;4.57;;
19038;SDS011;9652;49.014;12.052;2023-12-20T00:19:28;5.63;;;5.00;;
19038;SDS011;9652;49.014;12.052;2023-12-20T00:21:55;6.80;;;4.77;;
19038;SDS011;9652;49.014;12.052;2023-12-20T00:24:22;5.37;;;4.70;;
19038;SDS011;9652;49.014;12.052;2023-12-20T00:26:49;5.20;;;4.67;;
19038;SDS011;9652;49.014;12.052;2023-12-20T00:29:16;6.90;;;5.83;;
19038;SDS011;9652;49.014;12.052;2023-12-20T00:31:44;5.63;;;5.13;;
19038;SDS011;9652;49.014;12.052;2023-12-20T00:34:11;5.23;;;4.77;;
19038;SDS011;9652;49.014;12.052;2023-12-20T00:36:38;5.17;;;4.40;;
19038;SDS011;9652;49.014;12.052;2023-12-20T00:39:05;5.97;;;4.33;;
19038;SDS011;9652;49.014;12.052;2023-12-20T00:41:33;5.77;;;5.03;;
19038;SDS011;9652;49.014;12.052;2023-12-20T00:44:00;5.20;;;4.70;;
19038;SDS011;9652;49.014;12.052;2023-12-20T00:46:27;5.20;;;4.70;;
19038;SDS011;9652;49.014;12.052;2023-12-20T00:48:55;4.73;;;4.33;;
19038;SDS011;9652;49.014;12.052;2023-12-20T00:51:22;6.30;;;5.07;;
19038;SDS011;9652;49.014;12.052;2023-12-20T00:53:49;5.97;;;4.83;;
19038;SDS011;9652;49.014;12.052;2023-12-20T00:56:19;5.77;;;5.17;;
19038;SDS011;9652;49.014;12.052;2023-12-20T00:58:47;5.47;;;4.97;;
19038;SDS011;9652;49.014;12.052;2023-12-20T01:01:14;5.57;;;4.50;;
19038;SDS011;9652;49.014;12.052;2023-12-20T01:03:42;5.23;;;4.73;;
19038;SDS011;9652;49.014;12.052;2023-12-20T01:06:10;5.03;;;4.53;;
19038;SDS011;9652;49.014;12.052;2023-12-20T01:08:38;5.27;;;4.70;;
19038;SDS011;9652;49.014;12.052;2023-12-20T01:11:05;5.53;;;5.03;;
19038;SDS011;9652;49.014;12.052;2023-12-20T01:13:32;6.20;;;5.33;;
19038;SDS011;9652;49.014;12.052;2023-12-20T01:15:59;6.17;;;5.43;;
19038;SDS011;9652;49.014;12.052;2023-12-20T01:18:26;6.87;;;5.40;;
19038;SDS011;9652;49.014;12.052;2023-12-20T01:20:53;5.37;;;4.73;;
19038;SDS011;9652;49.014;12.052;2023-12-20T01:23:22;5.60;;;4.90;;
19038;SDS011;9652;49.014;12.052;2023-12-20T01:25:49;8.13;;;5.77;;
19038;SDS011;9652;49.014;12.052;2023-12-20T01:28:16;6.60;;;5.90;;
19038;SDS011;9652;49.014;12.052;2023-12-20T01:30:43;5.97;;;5.40;;
19038;SDS011;9652;49.014;12.052;2023-12-20T01:33:10;6.37;;;5.60;;
19038;SDS011;9652;49.014;12.052;2023-12-20T01:35:37;5.80;;;5.20;;
19038;SDS011;9652;49.014;12.052;2023-12-20T01:38:04;7.90;;;5.93;;
19038;SDS011;9652;49.014;12.052;2023-12-20T01:40:32;6.40;;;4.53;;
19038;SDS011;9652;49.014;12.052;2023-12-20T01:42:59;5.77;;;5.17;;
19038;SDS011;9652;49.014;12.052;2023-12-20T01:45:26;6.40;;;5.53;;
19038;SDS011;9652;49.014;12.052;2023-12-20T01:47:54;7.67;;;5.57;;
19038;SDS011;9652;49.014;12.052;2023-12-20T01:50:23;7.00;;;5.20;;
19038;SDS011;9652;49.014;12.052;2023-12-20T01:52:51;6.97;;;5.60;;
19038;SDS011;9652;49.014;12.052;2023-12-20T01:55:22;6.63;;;5.97;;
19038;SDS011;9652;49.014;12.052;2023-12-20T01:57:52;5.50;;;4.83;;
19038;SDS011;9652;49.014;12.052;2023-12-20T02:00:20;6.27;;;5.67;;
19038;SDS011;9652;49.014;12.052;2023-12-20T02:02:51;6.60;;;5.30;;
19038;SDS011;9652;49.014;12.052;2023-12-20T02:05:20;5.90;;;4.90;;
19038;SDS011;9652;49.014;12.052;2023-12-20T02:07:48;6.53;;;5.90;;
19038;SDS011;9652;49.014;12.052;2023-12-20T02:10:15;5.97;;;5.30;;
19038;SDS011;9652;49.014;12.052;2023-12-20T02:12:42;5.27;;;4.77;;
19038;SDS011;9652;49.014;12.052;2023-12-20T02:15:11;5.73;;;5.13;;
19038;SDS011;9652;49.014;12.052;2023-12-20T02:17:38;5.50;;;4.80;;
19038;SDS011;9652;49.014;12.052;2023-12-20T02:20:06;7.57;;;5.57;;
19038;SDS011;9652;49.014;12.052;2023-12-20T02:22:36;6.23;;;5.30;;
19038;SDS011;9652;49.014;12.052;2023-12-20T02:25:03;5.80;;;5.20;;
19038;SDS011;9652;49.014;12.052;2023-12-20T02:27:30;6.20;;;5.37;;
19038;SDS011;9652;49.014;12.052;2023-12-20T02:29:58;5.23;;;4.73;;
19038;SDS011;9652;49.014;12.052;2023-12-20T02:32:25;5.43;;;4.83;;
19038;SDS011;9652;49.014;12.052;2023-12-20T02:34:52;5.73;;;5.20;;
19038;SDS011;9652;49.014;12.052;2023-12-20T02:37:20;5.60;;;4.80;;
19038;SDS011;9652;49.014;12.052;2023-12-20T02:39:48;5.83;;;4.70;;
19038;SDS011;9652;49.014;12.052;2023-12-20T02:42:15;5.73;;;4.50;;
19038;SDS011;9652;49.014;12.052;2023-12-20T02:44:42;6.43;;;4.60;;
19038;SDS011;9652;49.014;12.052;2023-12-20T02:47:09;8.03;;;4.87;;
19038;SDS011;9652;49.014;12.052;2023-12-20T02:49:36;6.13;;;5.07;;
19038;SDS011;9652;49.014;12.052;2023-12-20T02:52:03;4.57;;;4.17;;
19038;SDS011;9652;49.014;12.052;2023-12-20T02:54:31;6.27;;;5.00;;
19038;SDS011;9652;49.014;12.052;2023-12-20T02:56:59;7.90;;;4.87;;
19038;SDS011;9652;49.014;12.052;2023-12-20T02:59:26;5.53;;;4.70;;
19038;SDS011;9652;49.014;12.052;2023-12-20T03:01:53;5.10;;;4.60;;
19038;SDS011;9652;49.014;12.052;2023-12-20T03:04:20;5.53;;;4.23;;
19038;SDS011;9652;49.014;12.052;2023-12-20T03:06:47;4.80;;;4.30;;
19038;SDS011;9652;49.014;12.052;2023-12-20T03:09:14;4.97;;;4.50;;
19038;SDS011;9652;49.014;12.052;2023-12-20T03:11:42;4.73;;;4.33;;
19038;SDS011;9652;49.014;12.052;2023-12-20T03:14:10;4.77;;;4.27;;
19038;SDS011;9652;49.014;12.052;2023-12-20T03:16:37;5.90;;;4.20;;
19038;SDS011;9652;49.014;12.052;2023-12-20T03:19:04;4.90;;;4.47;;
19038;SDS011;9652;49.014;12.052;2023-12-20T03:21:31;4.87;;;4.37;;
19038;SDS011;9652;49.014;12.052;2023-12-20T03:23:58;5.47;;;4.97;;
19038;SDS011;9652;49.014;12.052;2023-12-20T03:26:25;5.10;;;4.70;;
19038;SDS011;9652;49.014;12.052;2023-12-20T03:28:52;4.63;;;3.97;;
19038;SDS011;9652;49.014;12.052;2023-12-20T03:31:21;4.40;;;3.80;;
19038;SDS011;9652;49.014;12.052;2023-12-20T03:33:48;4.53;;;4.13;;
19038;SDS011;9652;49.014;12.052;2023-12-20T03:36:16;5.27;;;3.87;;
19038;SDS011;9652;49.014;12.052;2023-12-20T03:38:43;5.07;;;4.57;;
19038;SDS011;9652;49.014;12.052;2023-12-20T03:41:10;4.80;;;4.40;;
19038;SDS011;9652;49.014;12.052;2023-12-20T03:43:37;4.70;;;4.20;;
19038;SDS011;9652;49.014;12.052;2023-12-20T03:46:05;4.43;;;4.03;;
19038;SDS011;9652;49.014;12.052;2023-12-20T03:48:35;5.03;;;4.43;;
19038;SDS011;9652;49.014;12.052;2023-12-20T03:51:02;4.80;;;4.27;;
19038;SDS011;9652;49.014;12.052;2023-12-20T03:53:29;4.20;;;3.80;;
19038;SDS011;9652;49.014;12.052;2023-12-20T03:55:56;4.17;;;3.77;;
19038;SDS011;9652;49.014;12.052;2023-12-20T03:58:23;4.33;;;3.93;;
19038;SDS011;9652;49.014;12.052;2023-12-20T04:00:50;4.20;;;3.80;;
19038;SDS011;9652;49.014;12.052;2023-12-20T04:03:17;5.53;;;4.47;;
19038;SDS011;9652;49.014;12.052;2023-12-20T04:05:45;4.80;;;4.30;;
19038;SDS011;9652;49.014;12.052;2023-12-20T04:08:12;3.93;;;3.63;;
19038;SDS011;9652;49.014;12.052;2023-12-20T04:10:39;4.23;;;3.93;;
19038;SDS011;9652;49.014;12.052;2023-12-20T04:13:06;3.70;;;3.40;;
19038;SDS011;9652;49.014;12.052;2023-12-20T04:15:34;3.80;;;3.50;;
19038;SDS011;9652;49.014;12.052;2023-12-20T04:18:01;4.53;;;4.03;;
19038;SDS011;9652;49.014;12.052;2023-12-20T04:20:28;4.00;;;3.60;;
19038;SDS011;9652;49.014;12.052;2023-12-20T04:22:56;4.20;;;3.80;;
19038;SDS011;9652;49.014;12.052;2023-12-20T04:25:23;4.40;;;4.00;;
19038;SDS011;9652;49.014;12.052;2023-12-20T04:27:51;4.37;;;3.97;;
19038;SDS011;9652;49.014;12.052;2023-12-20T04:30:18;4.03;;;3.73;;
19038;SDS011;9652;49.014;12.052;2023-12-20T04:32:45;3.47;;;3.20;;
19038;SDS011;9652;49.014;12.052;2023-12-20T04:35:12;3.60;;;3.30;;
19038;SDS011;9652;49.014;12.052;2023-12-20T04:37:40;3.77;;;3.47;;
19038;SDS011;9652;49.014;12.052;2023-12-20T04:40:08;3.57;;;3.27;;
19038;SDS011;9652;49.014;12.052;2023-12-20T04:42:36;3.57;;;3.30;;
19038;SDS011;9652;49.014;12.052;2023-12-20T04:45:04;3.83;;;3.53;;
19038;SDS011;9652;49.014;12.052;2023-12-20T04:47:32;3.67;;;3.17;;
19038;SDS011;9652;49.014;12.052;2023-12-20T04:49:59;3.57;;;3.27;;
19038;SDS011;9652;49.014;12.052;2023-12-20T04:52:27;3.37;;;3.17;;
19038;SDS011;9652;49.014;12.052;2023-12-20T04:54:54;3.50;;;3.30;;
19038;SDS011;9652;49.014;12.052;2023-12-20T04:57:22;4.30;;;3.97;;
19038;SDS011;9652;49.014;12.052;2023-12-20T04:59:49;3.13;;;2.90;;
19038;SDS011;9652;49.014;12.052;2023-12-20T05:02:16;3.60;;;3.30;;
19038;SDS011;9652;49.014;12.052;2023-12-20T05:04:43;3.90;;;3.60;;
19038;SDS011;9652;49.014;12.052;2023-12-20T05:07:11;3.30;;;3.00;;
19038;SDS011;9652;49.014;12.052;2023-12-20T05:09:38;3.30;;;3.03;;
19038;SDS011;9652;49.014;12.052;2023-12-20T05:12:05;3.73;;;3.43;;
19038;SDS011;9652;49.014;12.052;2023-12-20T05:14:36;3.10;;;2.80;;
19038;SDS011;9652;49.014;12.052;2023-12-20T05:17:03;3.27;;;3.07;;
19038;SDS011;9652;49.014;12.052;2023-12-20T05:19:30;3.07;;;2.87;;
19038;SDS011;9652;49.014;12.052;2023-12-20T05:22:00;2.57;;;2.43;;
19038;SDS011;9652;49.014;12.052;2023-12-20T05:24:27;3.60;;;3.30;;
19038;SDS011;9652;49.014;12.052;2023-12-20T05:26:54;2.97;;;2.77;;
19038;SDS011;9652;49.014;12.052;2023-12-20T05:29:21;3.20;;;2.93;;
19038;SDS011;9652;49.014;12.052;2023-12-20T05:31:50;2.60;;;2.50;;
19038;SDS011;9652;49.014;12.052;2023-12-20T05:34:17;2.80;;;2.60;;
19038;SDS011;9652;49.014;12.052;2023-12-20T05:36:44;3.00;;;2.80;;
19038;SDS011;9652;49.014;12.052;2023-12-20T05:39:11;2.90;;;2.70;;
19038;SDS011;9652;49.014;12.052;2023-12-20T05:41:38;3.47;;;3.20;;
19038;SDS011;9652;49.014;12.052;2023-12-20T05:44:05;2.97;;;2.77;;
19038;SDS011;9652;49.014;12.052;2023-12-20T05:46:32;3.23;;;3.03;;
19038;SDS011;9652;49.014;12.052;2023-12-20T05:49:01;3.43;;;3.23;;
19038;SDS011;9652;49.014;12.052;2023-12-20T05:51:28;3.67;;;3.37;;
19038;SDS011;9652;49.014;12.052;2023-12-20T05:53:55;2.73;;;2.60;;
19038;SDS011;9652;49.014;12.052;2023-12-20T05:56:22;3.23;;;3.03;;
19038;SDS011;9652;49.014;12.052;2023-12-20T05:58:49;3.37;;;3.07;;
19038;SDS011;9652;49.014;12.052;2023-12-20T06:01:16;3.10;;;2.90;;
19038;SDS011;9652;49.014;12.052;2023-12-20T06:03:43;3.70;;;3.40;;
19038;SDS011;9652;49.014;12.052;2023-12-20T06:06:12;2.93;;;2.70;;
19038;SDS011;9652;49.014;12.052;2023-12-20T06:08:40;3.50;;;3.20;;
19038;SDS011;9652;49.014;12.052;2023-12-20T06:11:08;3.20;;;3.00;;
19038;SDS011;9652;49.014;12.052;2023-12-20T06:13:35;3.50;;;3.20;;
19038;SDS011;9652;49.014;12.052;2023-12-20T06:16:03;2.93;;;2.73;;
19038;SDS011;9652;49.014;12.052;2023-12-20T06:18:32;2.67;;;2.57;;
19038;SDS011;9652;49.014;12.052;2023-12-20T06:20:59;3.23;;;3.03;;
19038;SDS011;9652;49.014;12.052;2023-12-20T06:23:27;3.20;;;2.70;;
19038;SDS011;9652;49.014;12.052;2023-12-20T06:25:54;2.70;;;2.50;;
19038;SDS011;9652;49.014;12.052;2023-12-20T06:28:21;2.97;;;2.77;;
19038;SDS011;9652;49.014;12.052;2023-12-20T06:30:48;2.47;;;2.37;;
19038;SDS011;9652;49.014;12.052;2023-12-20T06:33:17;2.40;;;2.30;;
19038;SDS011;9652;49.014;12.052;2023-12-20T06:35:46;2.67;;;2.57;;
19038;SDS011;9652;49.014;12.052;2023-12-20T06:38:13;2.17;;;2.07;;
19038;SDS011;9652;49.014;12.052;2023-12-20T06:40:42;2.30;;;2.20;;
19038;SDS011;9652;49.014;12.052;2023-12-20T06:43:09;2.50;;;2.40;;
19038;SDS011;9652;49.014;12.052;2023-12-20T06:45:36;2.30;;;2.20;;
19038;SDS011;9652;49.014;12.052;2023-12-20T06:48:04;2.17;;;2.07;;
19038;SDS011;9652;49.014;12.052;2023-12-20T06:50:32;2.07;;;1.97;;
19038;SDS011;9652;49.014;12.052;2023-12-20T06:52:59;2.07;;;1.97;;
19038;SDS011;9652;49.014;12.052;2023-12-20T06:55:32;2.33;;;2.23;;
19038;SDS011;9652;49.014;12.052;2023-12-20T06:58:01;1.77;;;1.67;;
19038;SDS011;9652;49.014;12.052;2023-12-20T07:00:27;2.30;;;2.20;;
19038;SDS011;9652;49.014;12.052;2023-12-20T07:02:54;2.03;;;1.93;;
19038;SDS011;9652;49.014;12.052;2023-12-20T07:05:22;2.27;;;2.17;;
19038;SDS011;9652;49.014;12.052;2023-12-20T07:07:49;2.23;;;2.13;;
19038;SDS011;9652;49.014;12.052;2023-12-20T07:10:16;1.70;;;1.70;;
19038;SDS011;9652;49.014;12.052;2023-12-20T07:12:43;1.90;;;1.90;;
19038;SDS011;9652;49.014;12.052;2023-12-20T07:15:11;2.17;;;2.13;;
19038;SDS011;9652;49.014;12.052;2023-12-20T07:17:38;2.13;;;2.03;;
19038;SDS011;9652;49.014;12.052;2023-12-20T07:20:06;2.40;;;2.30;;
19038;SDS011;9652;49.014;12.052;2023-12-20T07:22:36;2.17;;;2.07;;
19038;SDS011;9652;49.014;12.052;2023-12-20T07:25:03;2.23;;;2.13;;
19038;SDS011;9652;49.014;12.052;2023-12-20T07:27:31;2.43;;;2.33;;
19038;SDS011;9652;49.014;12.052;2023-12-20T07:29:58;2.10;;;2.00;;
19038;SDS011;9652;49.014;12.052;2023-12-20T07:32:27;2.10;;;2.00;;
19038;SDS011;9652;49.014;12.052;2023-12-20T07:34:55;2.20;;;2.10;;
19038;SDS011;9652;49.014;12.052;2023-12-20T07:37:22;2.03;;;1.93;;
19038;SDS011;9652;49.014;12.052;2023-12-20T07:39:49;2.10;;;2.00;;
19038;SDS011;9652;49.014;12.052;2023-12-20T07:42:16;2.30;;;2.20;;
19038;SDS011;9652;49.014;12.052;2023-12-20T07:44:43;2.33;;;2.23;;
19038;SDS011;9652;49.014;12.052;2023-12-20T07:47:11;2.03;;;1.93;;
19038;SDS011;9652;49.014;12.052;2023-12-20T07:49:43;2.50;;;2.40;;
19038;SDS011;9652;49.014;12.052;2023-12-20T07:52:10;2.10;;;2.00;;
19038;SDS011;9652;49.014;12.052;2023-12-20T07:54:37;2.30;;;2.20;;
19038;SDS011;9652;49.014;12.052;2023-12-20T07:57:05;2.40;;;2.20;;
19038;SDS011;9652;49.014;12.052;2023-12-20T07:59:32;2.10;;;2.00;;
19038;SDS011;9652;49.014;12.052;2023-12-20T08:01:59;2.33;;;2.13;;
19038;SDS011;9652;49.014;12.052;2023-12-20T08:04:26;3.73;;;2.83;;
19038;SDS011;9652;49.014;12.052;2023-12-20T08:06:54;2.30;;;2.10;;
19038;SDS011;9652;49.014;12.052;2023-12-20T08:09:21;2.23;;;2.13;;
19038;SDS011;9652;49.014;12.052;2023-12-20T08:11:48;2.03;;;1.93;;
19038;SDS011;9652;49.014;12.052;2023-12-20T08:14:15;2.33;;;2.20;;
19038;SDS011;9652;49.014;12.052;2023-12-20T08:16:43;2.67;;;2.43;;
19038;SDS011;9652;49.014;12.052;2023-12-20T08:19:10;2.13;;;2.03;;
19038;SDS011;9652;49.014;12.052;2023-12-20T08:21:37;1.73;;;1.73;;
19038;SDS011;9652;49.014;12.052;2023-12-20T08:24:06;2.10;;;2.00;;
19038;SDS011;9652;49.014;12.052;2023-12-20T08:26:34;2.27;;;2.17;;
19038;SDS011;9652;49.014;12.052;2023-12-20T08:29:01;1.77;;;1.77;;
19038;SDS011;9652;49.014;12.052;2023-12-20T08:31:28;2.43;;;2.33;;
19038;SDS011;9652;49.014;12.052;2023-12-20T08:33:55;2.37;;;2.27;;
19038;SDS011;9652;49.014;12.052;2023-12-20T08:36:23;2.20;;;2.10;;
19038;SDS011;9652;49.014;12.052;2023-12-20T08:38:49;2.07;;;1.97;;
19038;SDS011;9652;49.014;12.052;2023-12-20T08:41:17;1.90;;;1.80;;
19038;SDS011;9652;49.014;12.052;2023-12-20T08:43:45;2.03;;;1.93;;
19038;SDS011;9652;49.014;12.052;2023-12-20T08:46:13;2.17;;;2.07;;
19038;SDS011;9652;49.014;12.052;2023-12-20T08:48:41;1.63;;;1.63;;
19038;SDS011;9652;49.014;12.052;2023-12-20T08:51:08;2.13;;;2.07;;
19038;SDS011;9652;49.014;12.052;2023-12-20T08:53:36;2.10;;;2.00;;
19038;SDS011;9652;49.014;12.052;2023-12-20T08:56:03;2.00;;;1.90;;
19038;SDS011;9652;49.014;12.052;2023-12-20T08:58:32;2.20;;;2.10;;
19038;SDS011;9652;49.014;12.052;2023-12-20T09:01:01;1.30;;;1.20;;
19038;SDS011;9652;49.014;12.052;2023-12-20T09:03:28;1.87;;;1.77;;
19038;SDS011;9652;49.014;12.052;2023-12-20T09:05:55;2.17;;;2.07;;
19038;SDS011;9652;49.014;12.052;2023-12-20T09:08:21;1.77;;;1.67;;
19038;SDS011;9652;49.014;12.052;2023-12-20T09:10:48;2.03;;;1.93;;
19038;SDS011;9652;49.014;12.052;2023-12-20T09:13:15;1.50;;;1.50;;
19038;SDS011;9652;49.014;12.052;2023-12-20T09:15:43;2.03;;;1.93;;
19038;SDS011;9652;49.014;12.052;2023-12-20T09:18:10;2.20;;;2.10;;
19038;SDS011;9652;49.014;12.052;2023-12-20T09:20:37;2.10;;;1.67;;
19038;SDS011;9652;49.014;12.052;2023-12-20T09:23:04;2.17;;;2.07;;
19038;SDS011;9652;49.014;12.052;2023-12-20T09:25:31;1.70;;;1.70;;
19038;SDS011;9652;49.014;12.052;2023-12-20T09:27:58;2.03;;;1.93;;
19038;SDS011;9652;49.014;12.052;2023-12-20T09:30:26;2.27;;;2.17;;
19038;SDS011;9652;49.014;12.052;2023-12-20T09:32:55;1.97;;;1.87;;
19038;SDS011;9652;49.014;12.052;2023-12-20T09:35:22;2.83;;;2.63;;
19038;SDS011;9652;49.014;12.052;2023-12-20T09:37:51;4.87;;;3.40;;
19038;SDS011;9652;49.014;12.052;2023-12-20T09:40:18;1.90;;;1.80;;
19038;SDS011;9652;49.014;12.052;2023-12-20T09:42:47;2.07;;;1.97;;
19038;SDS011;9652;49.014;12.052;2023-12-20T09:45:22;2.23;;;2.13;;
19038;SDS011;9652;49.014;12.052;2023-12-20T09:47:49;2.10;;;2.00;;
19038;SDS011;9652;49.014;12.052;2023-12-20T09:50:21;1.63;;;1.53;;
19038;SDS011;9652;49.014;12.052;2023-12-20T09:52:49;2.53;;;2.43;;
19038;SDS011;9652;49.014;12.052;2023-12-20T09:55:19;2.17;;;2.07;;
19038;SDS011;9652;49.014;12.052;2023-12-20T09:57:47;2.13;;;1.93;;
19038;SDS011;9652;49.014;12.052;2023-12-20T10:00:15;2.50;;;2.30;;
19038;SDS011;9652;49.014;12.052;2023-12-20T10:02:45;2.60;;;2.40;;
19038;SDS011;9652;49.014;12.052;2023-12-20T10:05:26;2.30;;;2.20;;
19038;SDS011;9652;49.014;12.052;2023-12-20T10:07:55;2.07;;;1.97;;
19038;SDS011;9652;49.014;12.052;2023-12-20T10:10:22;1.97;;;1.87;;
19038;SDS011;9652;49.014;12.052;2023-12-20T10:13:02;1.77;;;1.67;;
19038;SDS011;9652;49.014;12.052;2023-12-20T10:15:32;2.00;;;1.90;;
19038;SDS011;9652;49.014;12.052;2023-12-20T10:17:59;2.17;;;2.07;;
19038;SDS011;9652;49.014;12.052;2023-12-20T10:20:28;2.47;;;2.27;;
19038;SDS011;9652;49.014;12.052;2023-12-20T10:22:56;2.20;;;2.10;;
19038;SDS011;9652;49.014;12.052;2023-12-20T10:25:24;2.03;;;1.93;;
19038;SDS011;9652;49.014;12.052;2023-12-20T10:30:38;1.97;;;1.87;;
19038;SDS011;9652;49.014;12.052;2023-12-20T10:33:06;1.97;;;1.83;;
19038;SDS011;9652;49.014;12.052;2023-12-20T10:35:35;2.50;;;2.30;;
19038;SDS011;9652;49.014;12.052;2023-12-20T10:38:03;1.83;;;1.73;;
19038;SDS011;9652;49.014;12.052;2023-12-20T10:40:34;1.50;;;1.50;;
19038;SDS011;9652;49.014;12.052;2023-12-20T10:43:03;2.23;;;2.13;;
19038;SDS011;9652;49.014;12.052;2023-12-20T10:45:31;1.70;;;1.60;;
19038;SDS011;9652;49.014;12.052;2023-12-20T10:47:58;1.90;;;1.80;;
19038;SDS011;9652;49.014;12.052;2023-12-20T10:50:28;1.93;;;1.83;;
19038;SDS011;9652;49.014;12.052;2023-12-20T10:52:57;1.90;;;1.80;;
19038;SDS011;9652;49.014;12.052;2023-12-20T10:55:25;2.10;;;2.00;;
19038;SDS011;9652;49.014;12.052;2023-12-20T10:57:52;2.00;;;1.90;;
19038;SDS011;9652;49.014;12.052;2023-12-20T11:00:26;2.00;;;1.90;;
19038;SDS011;9652;49.014;12.052;2023-12-20T11:02:56;1.60;;;1.50;;
19038;SDS011;9652;49.014;12.052;2023-12-20T11:05:30;2.30;;;2.10;;
19038;SDS011;9652;49.014;12.052;2023-12-20T11:08:10;1.87;;;1.77;;
19038;SDS011;9652;49.014;12.052;2023-12-20T11:10:43;2.37;;;2.23;;
19038;SDS011;9652;49.014;12.052;2023-12-20T11:13:22;1.97;;;1.87;;
19038;SDS011;9652;49.014;12.052;2023-12-20T11:15:56;2.20;;;2.00;;
19038;SDS011;9652;49.014;12.052;2023-12-20T11:18:28;2.10;;;2.00;;
19038;SDS011;9652;49.014;12.052;2023-12-20T11:20:56;2.20;;;2.10;;
19038;SDS011;9652;49.014;12.052;2023-12-20T11:23:30;2.03;;;1.93;;
19038;SDS011;9652;49.014;12.052;2023-12-20T11:25:59;2.40;;;2.30;;
19038;SDS011;9652;49.014;12.052;2023-12-20T11:28:28;2.50;;;2.30;;
19038;SDS011;9652;49.014;12.052;2023-12-20T11:30:56;2.90;;;2.63;;
19038;SDS011;9652;49.014;12.052;2023-12-20T11:33:26;2.70;;;2.37;;
19038;SDS011;9652;49.014;12.052;2023-12-20T11:35:56;3.30;;;2.23;;
19038;SDS011;9652;49.014;12.052;2023-12-20T11:38:25;2.30;;;2.10;;
19038;SDS011;9652;49.014;12.052;2023-12-20T11:40:54;2.07;;;1.97;;
19038;SDS011;9652;49.014;12.052;2023-12-20T11:43:29;2.83;;;2.30;;
19038;SDS011;9652;49.014;12.052;2023-12-20T11:46:02;2.00;;;1.90;;
19038;SDS011;9652;49.014;12.052;2023-12-20T11:48:31;2.20;;;2.10;;
19038;SDS011;9652;49.014;12.052;2023-12-20T11:50:58;2.30;;;1.93;;
19038;SDS011;9652;49.014;12.052;2023-12-20T11:53:26;2.43;;;2.23;;
19038;SDS011;9652;49.014;12.052;2023-12-20T11:55:54;3.23;;;2.00;;
19038;SDS011;9652;49.014;12.052;2023-12-20T11:58:21;2.07;;;1.90;;
19038;SDS011;9652;49.014;12.052;2023-12-20T12:00:49;2.57;;;1.80;;
19038;SDS011;9652;49.014;12.052;2023-12-20T12:03:16;3.30;;;2.17;;
19038;SDS011;9652;49.014;12.052;2023-12-20T12:05:46;3.43;;;2.00;;
19038;SDS011;9652;49.014;12.052;2023-12-20T12:08:13;2.20;;;2.10;;
19038;SDS011;9652;49.014;12.052;2023-12-20T12:10:40;2.23;;;2.07;;
19038;SDS011;9652;49.014;12.052;2023-12-20T12:13:09;2.23;;;1.90;;
19038;SDS011;9652;49.014;12.052;2023-12-20T12:15:36;3.47;;;2.10;;
19038;SDS011;9652;49.014;12.052;2023-12-20T12:18:04;4.23;;;2.23;;
19038;SDS011;9652;49.014;12.052;2023-12-20T12:20:32;2.87;;;1.90;;
19038;SDS011;9652;49.014;12.052;2023-12-20T12:23:00;2.30;;;2.20;;
19038;SDS011;9652;49.014;12.052;2023-12-20T12:25:28;2.73;;;2.07;;
19038;SDS011;9652;49.014;12.052;2023-12-20T12:27:57;3.37;;;2.27;;
19038;SDS011;9652;49.014;12.052;2023-12-20T12:30:26;2.83;;;1.90;;
19038;SDS011;9652;49.014;12.052;2023-12-20T12:32:53;2.13;;;1.70;;
19038;SDS011;9652;49.014;12.052;2023-12-20T12:35:22;1.90;;;1.80;;
19038;SDS011;9652;49.014;12.052;2023-12-20T12:37:50;2.90;;;1.90;;
19038;SDS011;9652;49.014;12.052;2023-12-20T12:40:17;2.20;;;1.87;;
19038;SDS011;9652;49.014;12.052;2023-12-20T12:42:45;4.13;;;2.13;;
19038;SDS011;9652;49.014;12.052;2023-12-20T12:45:12;3.40;;;1.90;;
19038;SDS011;9652;49.014;12.052;2023-12-20T12:47:42;2.20;;;1.67;;
19038;SDS011;9652;49.014;12.052;2023-12-20T12:50:09;1.87;;;1.57;;
19038;SDS011;9652;49.014;12.052;2023-12-20T12:52:36;2.70;;;1.93;;
19038;SDS011;9652;49.014;12.052;2023-12-20T12:55:03;2.53;;;2.20;;
19038;SDS011;9652;49.014;12.052;2023-12-20T12:57:31;2.10;;;1.90;;
19038;SDS011;9652;49.014;12.052;2023-12-20T12:59:59;1.90;;;1.67;;
19038;SDS011;9652;49.014;12.052;2023-12-20T13:02:28;4.70;;;2.07;;
19038;SDS011;9652;49.014;12.052;2023-12-20T13:04:57;2.60;;;2.40;;
19038;SDS011;9652;49.014;12.052;2023-12-20T13:07:26;1.57;;;1.47;;
19038;SDS011;9652;49.014;12.052;2023-12-20T13:09:53;2.63;;;1.90;;
19038;SDS011;9652;49.014;12.052;2023-12-20T13:12:20;1.83;;;1.53;;
19038;SDS011;9652;49.014;12.052;2023-12-20T13:14:47;2.30;;;2.10;;
19038;SDS011;9652;49.014;12.052;2023-12-20T13:17:14;2.57;;;2.10;;
19038;SDS011;9652;49.014;12.052;2023-12-20T13:19:41;3.30;;;2.10;;
19038;SDS011;9652;49.014;12.052;2023-12-20T13:22:10;2.23;;;2.03;;
19038;SDS011;9652;49.014;12.052;2023-12-20T13:24:37;2.43;;;2.10;;
19038;SDS011;9652;49.014;12.052;2023-12-20T13:27:04;2.13;;;1.83;;
19038;SDS011;9652;49.014;12.052;2023-12-20T13:29:31;2.93;;;2.53;;
19038;SDS011;9652;49.014;12.052;2023-12-20T13:31:58;2.50;;;2.13;;
19038;SDS011;9652;49.014;12.052;2023-12-20T13:34:25;2.43;;;1.80;;
19038;SDS011;9652;49.014;12.052;2023-12-20T13:36:53;5.30;;;1.90;;
19038;SDS011;9652;49.014;12.052;2023-12-20T13:39:21;2.10;;;1.63;;
19038;SDS011;9652;49.014;12.052;2023-12-20T13:41:48;2.40;;;2.20;;
19038;SDS011;9652;49.014;12.052;2023-12-20T13:44:15;2.07;;;1.97;;
19038;SDS011;9652;49.014;12.052;2023-12-20T13:46:42;2.77;;;1.90;;
19038;SDS011;9652;49.014;12.052;2023-12-20T13:49:10;2.90;;;2.27;;
19038;SDS011;9652;49.014;12.052;2023-12-20T13:51:38;2.40;;;1.80;;
19038;SDS011;9652;49.014;12.052;2023-12-20T13:54:05;2.20;;;2.00;;
19038;SDS011;9652;49.014;12.052;2023-12-20T13:56:34;2.23;;;1.83;;
19038;SDS011;9652;49.014;12.052;2023-12-20T13:59:01;2.23;;;2.10;;
19038;SDS011;9652;49.014;12.052;2023-12-20T14:01:28;4.40;;;2.20;;
19038;SDS011;9652;49.014;12.052;2023-12-20T14:03:55;3.27;;;1.97;;
19038;SDS011;9652;49.014;12.052;2023-12-20T14:06:22;2.07;;;1.97;;
19038;SDS011;9652;49.014;12.052;2023-12-20T14:08:49;2.37;;;2.27;;
19038;SDS011;9652;49.014;12.052;2023-12-20T14:11:16;2.10;;;2.00;;
19038;SDS011;9652;49.014;12.052;2023-12-20T14:13:45;2.47;;;2.37;;
19038;SDS011;9652;49.014;12.052;2023-12-20T14:16:12;2.40;;;2.20;;
19038;SDS011;9652;49.014;12.052;2023-12-20T14:18:39;2.27;;;2.10;;
19038;SDS011;9652;49.014;12.052;2023-12-20T14:21:07;2.23;;;2.13;;
19038;SDS011;9652;49.014;12.052;2023-12-20T14:23:35;2.30;;;2.20;;
19038;SDS011;9652;49.014;12.052;2023-12-20T14:26:02;2.97;;;2.77;;
19038;SDS011;9652;49.014;12.052;2023-12-20T14:28:29;2.27;;;1.83;;
19038;SDS011;9652;49.014;12.052;2023-12-20T14:30:58;2.07;;;1.97;;
19038;SDS011;9652;49.014;12.052;2023-12-20T14:33:25;2.40;;;2.20;;
19038;SDS011;9652;49.014;12.052;2023-12-20T14:35:52;2.40;;;2.30;;
19038;SDS011;9652;49.014;12.052;2023-12-20T14:38:19;2.90;;;2.70;;
19038;SDS011;9652;49.014;12.052;2023-12-20T14:40:46;2.00;;;1.90;;
19038;SDS011;9652;49.014;12.052;2023-12-20T14:43:13;1.90;;;1.80;;
19038;SDS011;9652;49.014;12.052;2023-12-20T14:45:41;4.23;;;2.17;;
19038;SDS011;9652;49.014;12.052;2023-12-20T14:48:10;2.63;;;2.43;;
19038;SDS011;9652;49.014;12.052;2023-12-20T14:50:37;2.87;;;2.23;;
19038;SDS011;9652;49.014;12.052;2023-12-20T14:53:05;2.70;;;2.50;;
19038;SDS011;9652;49.014;12.052;2023-12-20T14:55:33;3.70;;;2.60;;